createdAt,value
2022-09-19T00:01:58.918Z,2.47
2022-09-19T00:04:31.650Z,2.08
2022-09-19T00:07:05.378Z,2.13
2022-09-19T00:09:36.826Z,2.30
2022-09-19T00:12:17.804Z,1.88
2022-09-19T00:14:45.115Z,2.42
2022-09-19T00:17:12.547Z,2.20
2022-09-19T00:19:39.838Z,2.00
2022-09-19T00:22:20.843Z,2.22
2022-09-19T00:24:50.082Z,2.03
2022-09-19T00:27:23.433Z,2.10
2022-09-19T00:29:52.007Z,2.25
2022-09-19T00:32:21.136Z,2.03
2022-09-19T00:34:50.481Z,2.08
2022-09-19T00:37:26.205Z,2.30
2022-09-19T00:39:57.456Z,2.05
2022-09-19T00:42:28.271Z,1.88
2022-09-19T00:45:13.950Z,2.17
2022-09-19T00:47:49.663Z,2.10
2022-09-19T00:50:29.534Z,2.25
2022-09-19T00:53:17.135Z,2.17
2022-09-19T00:55:50.167Z,2.00
2022-09-19T00:58:30.439Z,1.98
2022-09-19T01:01:04.099Z,1.83
2022-09-19T01:03:32.362Z,1.85
2022-09-19T01:06:45.035Z,2.10
2022-09-19T01:09:49.459Z,1.83
2022-09-19T01:12:38.728Z,1.88
2022-09-19T01:15:34.011Z,1.75
2022-09-19T01:18:09.644Z,2.15
2022-09-19T01:23:49.452Z,1.80
2022-09-19T01:26:42.104Z,1.85
2022-09-19T01:29:21.835Z,1.88
2022-09-19T01:31:58.518Z,1.60
2022-09-19T01:34:36.288Z,1.98
2022-09-19T01:37:13.811Z,1.85
2022-09-19T01:40:06.762Z,2.00
2022-09-19T01:42:55.052Z,1.92
2022-09-19T01:45:35.429Z,1.90
2022-09-19T01:48:30.649Z,1.70
2022-09-19T01:51:36.557Z,1.80
2022-09-19T01:54:18.849Z,2.00
2022-09-19T01:58:01.778Z,1.98
2022-09-19T02:00:29.505Z,1.90
2022-09-19T02:03:49.528Z,1.90
2022-09-19T02:06:37.869Z,1.77
2022-09-19T02:09:33.995Z,2.00
2022-09-19T02:12:04.284Z,2.08
2022-09-19T02:14:44.629Z,2.00
2022-09-19T02:17:23.172Z,1.40
2022-09-19T02:20:00.181Z,2.00
2022-09-19T02:22:33.139Z,1.80
2022-09-19T02:25:06.462Z,1.60
2022-09-19T02:27:42.060Z,1.63
2022-09-19T02:30:13.173Z,1.40
2022-09-19T02:32:49.750Z,1.50
2022-09-19T02:38:25.264Z,1.35
2022-09-19T02:41:22.828Z,2.33
2022-09-19T02:44:03.529Z,1.60
2022-09-19T02:46:53.488Z,1.63
2022-09-19T02:49:37.713Z,1.52
2022-09-19T02:52:13.177Z,1.88
2022-09-19T02:54:49.681Z,1.67
2022-09-19T02:57:30.972Z,1.83
2022-09-19T03:03:43.007Z,1.60
2022-09-19T03:06:21.583Z,1.95
2022-09-19T03:08:59.249Z,1.60
2022-09-19T03:11:36.083Z,1.52
2022-09-19T03:14:04.641Z,1.75
2022-09-19T03:16:37.911Z,1.48
2022-09-19T03:19:14.589Z,1.98
2022-09-19T03:21:43.152Z,1.60
2022-09-19T03:24:12.794Z,1.80
2022-09-19T03:26:40.243Z,1.83
2022-09-19T03:29:12.702Z,1.58
2022-09-19T03:31:57.926Z,1.60
2022-09-19T03:34:34.394Z,1.60
2022-09-19T03:37:05.012Z,1.80
2022-09-19T03:39:44.128Z,1.77
2022-09-19T03:42:18.581Z,1.45
2022-09-19T03:44:52.274Z,1.42
2022-09-19T03:47:23.531Z,1.75
2022-09-19T03:49:59.470Z,1.58
2022-09-19T03:52:35.363Z,1.70
2022-09-19T03:55:02.881Z,1.40
2022-09-19T03:57:36.142Z,1.40
2022-09-19T04:00:04.559Z,1.75
2022-09-19T04:02:44.251Z,1.30
2022-09-19T04:05:14.776Z,1.40
2022-09-19T04:07:53.330Z,1.55
2022-09-19T04:10:31.014Z,1.63
2022-09-19T04:12:58.996Z,1.70
2022-09-19T04:15:29.105Z,1.42
2022-09-19T04:17:57.880Z,1.38
2022-09-19T04:20:28.619Z,1.60
2022-09-19T04:23:08.314Z,1.73
2022-09-19T04:25:59.090Z,1.63
2022-09-19T04:28:40.771Z,1.38
2022-09-19T04:31:10.814Z,1.95
2022-09-19T04:33:38.526Z,1.80
2022-09-19T04:36:09.649Z,1.58
2022-09-19T04:38:38.358Z,1.80
2022-09-19T04:41:35.577Z,1.50
2022-09-19T04:44:05.561Z,1.90
2022-09-19T04:46:51.599Z,1.85
2022-09-19T04:49:19.585Z,1.30
2022-09-19T04:51:57.432Z,1.92
2022-09-19T04:54:28.470Z,2.05
2022-09-19T04:56:59.175Z,1.80
2022-09-19T04:59:31.141Z,1.95
2022-09-19T05:02:04.290Z,1.70
2022-09-19T05:04:34.877Z,2.20
2022-09-19T05:07:05.326Z,2.50
2022-09-19T05:09:34.251Z,2.15
2022-09-19T05:12:11.120Z,3.22
2022-09-19T05:14:42.269Z,1.95
2022-09-19T05:17:13.553Z,1.92
2022-09-19T05:19:41.440Z,1.80
2022-09-19T05:22:09.112Z,1.90
2022-09-19T05:24:39.176Z,1.67
2022-09-19T05:27:06.742Z,1.70
2022-09-19T05:29:47.303Z,1.73
2022-09-19T05:32:15.869Z,1.75
2022-09-19T05:34:53.797Z,2.00
2022-09-19T05:37:55.353Z,1.88
2022-09-19T05:41:02.460Z,1.70
2022-09-19T05:43:50.160Z,1.65
2022-09-19T05:46:31.100Z,1.40
2022-09-19T05:49:17.318Z,2.00
2022-09-19T05:51:48.717Z,1.60
2022-09-19T05:54:21.863Z,1.70
2022-09-19T05:57:10.108Z,1.83
2022-09-19T05:59:41.072Z,1.90
2022-09-19T06:02:14.518Z,1.52
2022-09-19T06:04:51.673Z,1.70
2022-09-19T06:07:20.368Z,1.85
2022-09-19T06:09:50.830Z,1.42
2022-09-19T06:12:18.358Z,1.75
2022-09-19T06:14:45.818Z,1.83
2022-09-19T06:17:17.762Z,1.60
2022-09-19T06:19:51.282Z,1.70
2022-09-19T06:22:38.895Z,1.60
2022-09-19T06:25:06.602Z,1.73
2022-09-19T06:27:34.374Z,1.67
2022-09-19T06:30:02.797Z,2.00
2022-09-19T06:32:40.325Z,1.92
2022-09-19T06:35:17.687Z,1.83
2022-09-19T06:37:46.038Z,1.75
2022-09-19T06:40:13.620Z,1.63
2022-09-19T06:42:43.681Z,1.60
2022-09-19T06:45:36.381Z,1.63
2022-09-19T06:48:15.549Z,1.45
2022-09-19T06:51:09.189Z,1.95
2022-09-19T06:53:36.581Z,1.90
2022-09-19T06:56:07.452Z,1.70
2022-09-19T06:58:35.713Z,1.77
2022-09-19T07:01:03.099Z,1.80
2022-09-19T07:03:35.089Z,1.67
2022-09-19T07:06:03.099Z,2.08
2022-09-19T07:08:41.459Z,1.88
2022-09-19T07:11:11.182Z,1.33
2022-09-19T07:13:41.971Z,1.70
2022-09-19T07:16:11.243Z,1.98
2022-09-19T07:18:39.389Z,2.15
2022-09-19T07:21:26.847Z,1.50
2022-09-19T07:23:57.664Z,2.10
2022-09-19T07:26:46.756Z,1.65
2022-09-19T07:29:17.983Z,1.70
2022-09-19T07:31:47.556Z,1.77
2022-09-19T07:34:17.863Z,1.67
2022-09-19T07:36:50.336Z,1.70
2022-09-19T07:39:23.677Z,1.70
2022-09-19T07:42:15.092Z,1.65
2022-09-19T07:45:07.277Z,1.40
2022-09-19T07:47:50.709Z,1.60
2022-09-19T07:50:23.682Z,1.65
2022-09-19T07:53:15.603Z,1.67
2022-09-19T07:55:43.840Z,1.55
2022-09-19T07:58:13.079Z,1.48
2022-09-19T08:00:52.053Z,1.63
2022-09-19T08:03:37.963Z,1.33
2022-09-19T08:06:05.590Z,1.85
2022-09-19T08:08:36.362Z,1.35
2022-09-19T08:11:11.433Z,1.85
2022-09-19T08:13:39.525Z,1.00
2022-09-19T08:16:07.604Z,1.10
2022-09-19T08:18:35.560Z,1.40
2022-09-19T08:21:02.922Z,0.90
2022-09-19T08:23:31.510Z,1.27
2022-09-19T08:26:04.074Z,1.30
2022-09-19T08:28:31.636Z,1.42
2022-09-19T08:31:02.186Z,1.33
2022-09-19T08:33:33.172Z,1.40
2022-09-19T08:36:00.926Z,1.50
2022-09-19T08:38:33.186Z,1.70
2022-09-19T08:41:26.749Z,1.25
2022-09-19T08:44:09.420Z,1.30
2022-09-19T08:46:43.721Z,1.13
2022-09-19T08:49:24.240Z,0.88
2022-09-19T08:52:02.434Z,1.17
2022-09-19T08:54:47.112Z,0.82
2022-09-19T08:57:27.446Z,1.10
2022-09-19T09:00:17.520Z,0.88
2022-09-19T09:03:11.954Z,1.00
2022-09-19T09:06:20.650Z,1.15
2022-09-19T09:09:08.323Z,1.67
2022-09-19T09:11:52.309Z,1.63
2022-09-19T09:14:30.641Z,1.25
2022-09-19T09:17:44.394Z,1.13
2022-09-19T09:20:33.271Z,1.25
2022-09-19T09:23:25.277Z,0.77
2022-09-19T09:26:11.873Z,1.02
2022-09-19T09:28:59.521Z,1.48
2022-09-19T09:31:48.622Z,0.90
2022-09-19T09:34:31.799Z,1.40
2022-09-19T09:37:14.126Z,1.20
2022-09-19T09:40:00.741Z,1.17
2022-09-19T09:42:39.442Z,1.17
2022-09-19T09:45:24.091Z,1.30
2022-09-19T09:47:56.474Z,1.15
2022-09-19T09:51:01.905Z,1.20
2022-09-19T09:53:42.642Z,1.10
2022-09-19T09:56:36.080Z,1.33
2022-09-19T09:59:06.286Z,0.93
2022-09-19T10:02:02.653Z,1.25
2022-09-19T10:04:56.539Z,1.20
2022-09-19T10:07:36.555Z,1.20
2022-09-19T10:10:18.058Z,1.20
2022-09-19T10:13:09.559Z,1.08
2022-09-19T10:15:43.347Z,1.52
2022-09-19T10:18:17.213Z,1.10
2022-09-19T10:20:55.295Z,1.10
2022-09-19T10:23:31.446Z,1.23
2022-09-19T10:26:16.397Z,1.30
2022-09-19T10:28:54.856Z,1.15
2022-09-19T10:31:41.484Z,1.27
2022-09-19T10:34:36.583Z,1.20
2022-09-19T10:37:31.340Z,1.10
2022-09-19T10:40:02.561Z,1.65
2022-09-19T10:42:41.663Z,1.10
2022-09-19T10:45:27.322Z,1.30
2022-09-19T10:48:04.043Z,1.38
2022-09-19T10:50:32.949Z,1.00
2022-09-19T10:53:19.213Z,1.25
2022-09-19T10:55:46.678Z,1.05
2022-09-19T10:58:28.297Z,1.15
2022-09-19T11:01:27.678Z,1.60
2022-09-19T11:04:04.016Z,2.38
2022-09-19T11:06:33.822Z,1.40
2022-09-19T11:09:24.610Z,1.50
2022-09-19T11:11:52.267Z,1.20
2022-09-19T11:14:36.895Z,1.60
2022-09-19T11:17:38.583Z,1.50
2022-09-19T11:20:20.157Z,1.30
2022-09-19T11:23:44.861Z,1.08
2022-09-19T11:26:19.161Z,1.30
2022-09-19T11:29:27.644Z,1.17
2022-09-19T11:35:12.859Z,1.10
2022-09-19T11:41:15.369Z,1.30
2022-09-19T11:44:07.429Z,1.17
2022-09-19T11:46:59.143Z,1.02
2022-09-19T11:49:39.512Z,1.17
2022-09-19T11:52:32.071Z,1.23
2022-09-19T11:55:05.369Z,1.10
2022-09-19T11:57:48.042Z,1.02
2022-09-19T12:00:20.420Z,1.30
2022-09-19T12:03:19.720Z,1.15
2022-09-19T12:06:42.820Z,1.60
2022-09-19T12:09:28.224Z,1.73
2022-09-19T12:12:13.424Z,1.10
2022-09-19T12:15:24.278Z,1.45
2022-09-19T12:18:05.166Z,1.40
2022-09-19T12:20:42.449Z,1.50
2022-09-19T12:23:42.624Z,1.50
2022-09-19T12:26:25.804Z,1.20
2022-09-19T12:29:17.373Z,1.30
2022-09-19T12:31:52.007Z,1.15
2022-09-19T12:35:00.912Z,1.15
2022-09-19T12:37:48.366Z,1.25
2022-09-19T12:40:19.098Z,1.30
2022-09-19T12:42:56.054Z,1.30
2022-09-19T12:45:34.094Z,1.23
2022-09-19T12:48:34.382Z,1.10
2022-09-19T12:51:55.137Z,1.30
2022-09-19T12:54:38.155Z,1.40
2022-09-19T12:57:13.374Z,1.45
2022-09-19T13:02:20.213Z,1.95
2022-09-19T13:05:00.445Z,1.60
2022-09-19T13:07:50.700Z,1.60
2022-09-19T13:10:39.998Z,2.17
2022-09-19T13:13:39.069Z,1.90
2022-09-19T13:16:11.322Z,1.48
2022-09-19T13:19:04.205Z,1.60
2022-09-19T13:21:59.870Z,1.60
2022-09-19T13:24:43.007Z,1.13
2022-09-19T13:27:15.763Z,1.20
2022-09-19T13:29:46.463Z,1.20
2022-09-19T13:32:35.847Z,1.20
2022-09-19T13:35:07.207Z,1.17
2022-09-19T13:37:34.435Z,1.33
2022-09-19T13:40:17.547Z,1.27
2022-09-19T13:42:49.744Z,1.13
2022-09-19T13:45:39.605Z,1.30
2022-09-19T13:48:33.436Z,1.00
2022-09-19T13:51:15.679Z,1.70
2022-09-19T13:53:45.937Z,1.95
2022-09-19T13:56:33.881Z,1.40
2022-09-19T13:59:36.407Z,1.30
2022-09-19T14:02:19.709Z,0.80
2022-09-19T14:05:21.246Z,1.20
2022-09-19T14:10:46.670Z,1.60
2022-09-19T14:13:25.866Z,0.93
2022-09-19T14:15:56.364Z,1.10
2022-09-19T14:18:48.116Z,1.50
2022-09-19T14:21:27.571Z,1.20
2022-09-19T14:24:03.395Z,1.70
2022-09-19T14:27:19.889Z,1.23
2022-09-19T14:30:08.318Z,1.10
2022-09-19T14:32:50.315Z,0.90
2022-09-19T14:35:48.112Z,0.80
2022-09-19T14:38:30.272Z,1.15
2022-09-19T14:41:09.514Z,0.93
2022-09-19T14:44:01.946Z,1.30
2022-09-19T14:46:37.180Z,0.70
2022-09-19T14:49:10.306Z,1.10
2022-09-19T14:52:06.148Z,1.67
2022-09-19T14:54:48.402Z,1.38
2022-09-19T14:57:18.502Z,1.17
2022-09-19T14:59:45.927Z,0.90
2022-09-19T15:02:28.638Z,1.92
2022-09-19T15:05:03.096Z,1.25
2022-09-19T15:07:36.055Z,1.02
2022-09-19T15:10:19.869Z,1.50
2022-09-19T15:12:48.036Z,0.82
2022-09-19T15:15:17.021Z,1.65
2022-09-19T15:17:44.479Z,1.10
2022-09-19T15:20:16.927Z,1.10
2022-09-19T15:22:55.915Z,1.63
2022-09-19T15:25:37.446Z,0.85
2022-09-19T15:28:30.136Z,0.77
2022-09-19T15:31:02.011Z,0.60
2022-09-19T15:33:30.488Z,0.82
2022-09-19T15:36:00.911Z,0.70
2022-09-19T15:38:32.491Z,0.80
2022-09-19T15:41:02.269Z,1.23
2022-09-19T15:43:30.803Z,1.00
2022-09-19T15:46:27.134Z,0.88
2022-09-19T15:48:58.892Z,0.90
2022-09-19T15:51:54.874Z,1.00
2022-09-19T15:54:31.113Z,0.93
2022-09-19T15:57:01.371Z,0.82
2022-09-19T15:59:47.518Z,0.90
2022-09-19T16:02:19.058Z,0.90
2022-09-19T16:04:47.198Z,1.00
2022-09-19T16:07:50.505Z,1.60
2022-09-19T16:10:33.740Z,1.20
2022-09-19T16:13:36.300Z,0.90
2022-09-19T16:16:30.282Z,1.10
2022-09-19T16:18:58.137Z,1.52
2022-09-19T16:21:36.378Z,1.40
2022-09-19T16:24:09.833Z,1.00
2022-09-19T16:26:37.917Z,1.05
2022-09-19T16:29:06.422Z,0.80
2022-09-19T16:31:38.581Z,1.15
2022-09-19T16:34:09.038Z,1.05
2022-09-19T16:36:50.786Z,1.10
2022-09-19T16:39:18.558Z,1.55
2022-09-19T16:41:57.760Z,2.20
2022-09-19T16:44:26.567Z,1.38
2022-09-19T16:47:08.462Z,2.22
2022-09-19T16:49:36.211Z,1.42
2022-09-19T16:52:05.585Z,2.00
2022-09-19T16:54:33.811Z,2.10
2022-09-19T16:57:02.618Z,2.55
2022-09-19T16:59:31.983Z,2.47
2022-09-19T17:01:59.307Z,2.50
2022-09-19T17:04:28.833Z,3.05
2022-09-19T17:06:56.322Z,3.97
2022-09-19T17:09:23.912Z,3.45
2022-09-19T17:11:51.592Z,3.38
2022-09-19T17:14:21.177Z,4.07
2022-09-19T17:16:49.159Z,3.70
2022-09-19T17:19:16.656Z,4.45
2022-09-19T17:21:43.968Z,4.28
2022-09-19T17:24:12.515Z,5.25
2022-09-19T17:26:41.344Z,5.10
2022-09-19T17:29:09.792Z,4.30
2022-09-19T17:31:37.248Z,5.53
2022-09-19T17:34:07.972Z,6.28
2022-09-19T17:36:37.786Z,5.60
2022-09-19T17:39:05.172Z,5.30
2022-09-19T17:41:35.654Z,5.43
2022-09-19T17:44:06.745Z,5.13
2022-09-19T17:46:34.957Z,4.55
2022-09-19T17:49:02.528Z,5.97
2022-09-19T17:51:30.011Z,6.35
2022-09-19T17:53:57.862Z,8.55
2022-09-19T17:56:27.221Z,7.63
2022-09-19T17:58:59.855Z,8.13
2022-09-19T18:01:47.099Z,6.13
2022-09-19T18:04:15.018Z,6.38
2022-09-19T18:06:42.512Z,5.20
2022-09-19T18:09:11.600Z,4.53
2022-09-19T18:11:41.344Z,5.60
2022-09-19T18:14:13.695Z,5.05
2022-09-19T18:16:44.532Z,7.05
2022-09-19T18:19:15.154Z,5.90
2022-09-19T18:21:42.493Z,5.95
2022-09-19T18:24:11.141Z,5.25
2022-09-19T18:26:39.323Z,4.93
2022-09-19T18:29:08.665Z,4.55
2022-09-19T18:31:36.334Z,4.60
2022-09-19T18:34:04.852Z,4.47
2022-09-19T18:36:32.717Z,4.70
2022-09-19T18:39:00.235Z,3.58
2022-09-19T18:41:28.320Z,6.07
2022-09-19T18:43:56.750Z,6.10
2022-09-19T18:46:26.247Z,5.85
2022-09-19T18:48:57.110Z,6.28
2022-09-19T18:51:27.319Z,5.63
2022-09-19T18:53:56.384Z,4.68
2022-09-19T18:56:24.075Z,5.40
2022-09-19T18:58:53.398Z,3.92
2022-09-19T19:01:22.591Z,3.30
2022-09-19T19:03:57.498Z,3.28
2022-09-19T19:06:26.285Z,3.20
2022-09-19T19:08:55.775Z,3.58
2022-09-19T19:11:25.778Z,3.38
2022-09-19T19:13:53.585Z,3.05
2022-09-19T19:16:24.257Z,3.60
2022-09-19T19:18:54.002Z,2.75
2022-09-19T19:21:24.328Z,2.90
2022-09-19T19:23:57.476Z,2.40
2022-09-19T19:26:26.274Z,2.58
2022-09-19T19:28:53.695Z,2.40
2022-09-19T19:31:21.991Z,2.33
2022-09-19T19:33:49.356Z,2.78
2022-09-19T19:36:19.091Z,3.67
2022-09-19T19:38:48.965Z,3.08
2022-09-19T19:41:24.326Z,3.65
2022-09-19T19:43:54.444Z,4.20
2022-09-19T19:46:27.838Z,4.53
2022-09-19T19:48:58.144Z,4.15
2022-09-19T19:51:28.305Z,4.00
2022-09-19T19:53:59.419Z,3.47
2022-09-19T19:56:29.495Z,3.10
2022-09-19T19:58:57.153Z,3.28
2022-09-19T20:01:31.273Z,3.10
2022-09-19T20:04:03.269Z,3.80
2022-09-19T20:06:36.179Z,4.35
2022-09-19T20:09:11.860Z,2.67
2022-09-19T20:11:40.257Z,3.70
2022-09-19T20:14:12.655Z,4.78
2022-09-19T20:16:42.692Z,4.03
2022-09-19T20:19:11.727Z,2.83
2022-09-19T20:21:42.130Z,4.00
2022-09-19T20:24:20.735Z,3.00
2022-09-19T20:26:50.205Z,2.95
2022-09-19T20:29:20.670Z,2.92
2022-09-19T20:31:48.130Z,6.30
2022-09-19T20:34:15.652Z,3.47
2022-09-19T20:36:43.157Z,2.55
2022-09-19T20:39:10.549Z,3.13
2022-09-19T20:41:38.218Z,3.53
2022-09-19T20:44:09.592Z,2.33
2022-09-19T20:46:38.377Z,2.47
2022-09-19T20:49:08.901Z,3.05
2022-09-19T20:51:39.323Z,2.90
2022-09-19T20:54:08.921Z,3.40
2022-09-19T20:56:36.574Z,2.60
2022-09-19T20:59:07.422Z,2.00
2022-09-19T21:01:37.403Z,2.20
2022-09-19T21:04:06.021Z,2.28
2022-09-19T21:06:34.287Z,1.98
2022-09-19T21:09:03.836Z,1.90
2022-09-19T21:11:32.535Z,1.90
2022-09-19T21:14:00.276Z,1.98
2022-09-19T21:16:30.298Z,1.85
2022-09-19T21:18:59.700Z,2.20
2022-09-19T21:21:31.792Z,2.13
2022-09-19T21:24:04.666Z,2.00
2022-09-19T21:26:34.564Z,2.13
2022-09-19T21:29:05.176Z,2.00
2022-09-19T21:31:35.065Z,2.22
2022-09-19T21:34:04.461Z,2.20
2022-09-19T21:36:34.223Z,2.13
2022-09-19T21:39:02.335Z,2.00
2022-09-19T21:41:31.115Z,1.85
2022-09-19T21:44:01.129Z,2.20
2022-09-19T21:46:31.441Z,2.15
2022-09-19T21:48:58.992Z,1.50
2022-09-19T21:51:29.819Z,1.70
2022-09-19T21:53:59.332Z,1.80
2022-09-19T21:56:28.877Z,1.70
2022-09-19T21:58:57.193Z,1.48
2022-09-19T22:01:27.115Z,1.55
2022-09-19T22:03:55.482Z,1.50
2022-09-19T22:06:24.133Z,1.50
2022-09-19T22:08:53.797Z,1.75
2022-09-19T22:11:28.680Z,1.67
2022-09-19T22:16:24.126Z,1.50
2022-09-19T22:18:52.528Z,1.50
2022-09-19T22:21:24.578Z,1.30
2022-09-19T22:23:54.432Z,1.00
2022-09-19T22:26:24.464Z,1.30
2022-09-19T22:28:54.649Z,1.30
2022-09-19T22:31:24.670Z,1.23
2022-09-19T22:33:53.975Z,1.40
2022-09-19T22:36:24.221Z,1.00
2022-09-19T22:38:52.202Z,1.13
2022-09-19T22:41:20.518Z,1.10
2022-09-19T22:43:48.334Z,1.50
2022-09-19T22:46:18.335Z,1.25
2022-09-19T22:48:47.049Z,1.30
2022-09-19T22:51:18.899Z,1.10
2022-09-19T22:53:49.308Z,1.00
2022-09-19T22:56:24.926Z,1.20
2022-09-19T23:01:24.214Z,1.05
2022-09-19T23:03:58.293Z,1.38
2022-09-19T23:06:29.274Z,1.45
2022-09-19T23:08:59.027Z,1.17
2022-09-19T23:11:29.413Z,1.35
2022-09-19T23:14:01.690Z,1.10
2022-09-19T23:16:34.912Z,1.17
2022-09-19T23:19:04.809Z,1.25
2022-09-19T23:21:36.312Z,1.20
2022-09-19T23:24:06.139Z,0.98
2022-09-19T23:26:34.098Z,0.90
2022-09-19T23:29:03.413Z,1.20
2022-09-19T23:31:31.672Z,1.15
2022-09-19T23:33:59.082Z,1.23
2022-09-19T23:36:26.847Z,1.38
2022-09-19T23:38:55.605Z,1.00
2022-09-19T23:41:24.469Z,1.23
2022-09-19T23:43:52.223Z,1.50
2022-09-19T23:46:21.979Z,1.20
2022-09-19T23:48:50.477Z,1.30
2022-09-19T23:51:19.543Z,0.90
2022-09-19T23:53:46.824Z,1.17
2022-09-19T23:56:14.306Z,1.15
2022-09-19T23:58:41.788Z,1.10
